sensor_id;sensor_type;location;lat;lon;timestamp;P1;durP1;ratioP1;P2;durP2;ratioP2
17372;SDS011;8803;48.116;11.590;2024-02-26T00:00:35;3.97;;;3.17;;
17372;SDS011;8803;48.116;11.590;2024-02-26T00:02:40;3.00;;;2.70;;
17372;SDS011;8803;48.116;11.590;2024-02-26T00:04:45;3.33;;;3.00;;
17372;SDS011;8803;48.116;11.590;2024-02-26T00:06:49;3.77;;;3.17;;
17372;SDS011;8803;48.116;11.590;2024-02-26T00:08:55;3.90;;;3.20;;
17372;SDS011;8803;48.116;11.590;2024-02-26T00:11:04;3.60;;;2.90;;
17372;SDS011;8803;48.116;11.590;2024-02-26T00:13:09;2.87;;;2.63;;
17372;SDS011;8803;48.116;11.590;2024-02-26T00:15:22;3.17;;;2.90;;
17372;SDS011;8803;48.116;11.590;2024-02-26T00:17:28;4.23;;;2.80;;
17372;SDS011;8803;48.116;11.590;2024-02-26T00:19:34;3.27;;;2.93;;
17372;SDS011;8803;48.116;11.590;2024-02-26T00:21:48;2.97;;;2.70;;
17372;SDS011;8803;48.116;11.590;2024-02-26T00:26:05;3.47;;;2.60;;
17372;SDS011;8803;48.116;11.590;2024-02-26T00:28:13;4.33;;;2.50;;
17372;SDS011;8803;48.116;11.590;2024-02-26T00:30:17;2.93;;;2.63;;
17372;SDS011;8803;48.116;11.590;2024-02-26T00:32:30;3.13;;;2.73;;
17372;SDS011;8803;48.116;11.590;2024-02-26T00:34:35;2.70;;;2.47;;
17372;SDS011;8803;48.116;11.590;2024-02-26T00:36:40;3.17;;;2.50;;
17372;SDS011;8803;48.116;11.590;2024-02-26T00:38:53;3.17;;;2.57;;
17372;SDS011;8803;48.116;11.590;2024-02-26T00:41:06;3.37;;;2.97;;
17372;SDS011;8803;48.116;11.590;2024-02-26T00:43:10;3.03;;;2.73;;
17372;SDS011;8803;48.116;11.590;2024-02-26T00:45:15;5.40;;;3.00;;
17372;SDS011;8803;48.116;11.590;2024-02-26T00:47:21;2.97;;;2.60;;
17372;SDS011;8803;48.116;11.590;2024-02-26T00:49:26;2.83;;;2.57;;
17372;SDS011;8803;48.116;11.590;2024-02-26T00:51:32;3.67;;;2.77;;
17372;SDS011;8803;48.116;11.590;2024-02-26T00:53:37;3.40;;;2.70;;
17372;SDS011;8803;48.116;11.590;2024-02-26T00:55:42;2.87;;;2.60;;
17372;SDS011;8803;48.116;11.590;2024-02-26T00:57:55;3.00;;;2.70;;
17372;SDS011;8803;48.116;11.590;2024-02-26T01:00:02;3.27;;;2.70;;
17372;SDS011;8803;48.116;11.590;2024-02-26T01:02:21;2.50;;;2.30;;
17372;SDS011;8803;48.116;11.590;2024-02-26T01:04:26;3.23;;;2.40;;
17372;SDS011;8803;48.116;11.590;2024-02-26T01:06:30;2.97;;;2.33;;
17372;SDS011;8803;48.116;11.590;2024-02-26T01:08:43;3.47;;;2.60;;
17372;SDS011;8803;48.116;11.590;2024-02-26T01:10:49;2.97;;;2.67;;
17372;SDS011;8803;48.116;11.590;2024-02-26T01:12:53;4.23;;;2.90;;
17372;SDS011;8803;48.116;11.590;2024-02-26T01:14:58;3.13;;;2.83;;
17372;SDS011;8803;48.116;11.590;2024-02-26T01:17:11;3.27;;;2.57;;
17372;SDS011;8803;48.116;11.590;2024-02-26T01:19:16;3.70;;;2.80;;
17372;SDS011;8803;48.116;11.590;2024-02-26T01:21:29;3.20;;;2.60;;
17372;SDS011;8803;48.116;11.590;2024-02-26T01:23:34;2.77;;;2.30;;
17372;SDS011;8803;48.116;11.590;2024-02-26T01:25:39;2.87;;;2.50;;
17372;SDS011;8803;48.116;11.590;2024-02-26T01:27:52;3.53;;;2.57;;
17372;SDS011;8803;48.116;11.590;2024-02-26T01:29:56;2.87;;;2.50;;
17372;SDS011;8803;48.116;11.590;2024-02-26T01:32:04;2.83;;;2.30;;
17372;SDS011;8803;48.116;11.590;2024-02-26T01:34:10;3.60;;;2.17;;
17372;SDS011;8803;48.116;11.590;2024-02-26T01:36:16;3.37;;;2.60;;
17372;SDS011;8803;48.116;11.590;2024-02-26T01:38:20;2.60;;;2.40;;
17372;SDS011;8803;48.116;11.590;2024-02-26T01:40:28;3.03;;;2.47;;
17372;SDS011;8803;48.116;11.590;2024-02-26T01:42:33;2.87;;;2.40;;
17372;SDS011;8803;48.116;11.590;2024-02-26T01:44:38;2.77;;;2.23;;
17372;SDS011;8803;48.116;11.590;2024-02-26T01:46:44;3.07;;;2.43;;
17372;SDS011;8803;48.116;11.590;2024-02-26T01:48:51;3.33;;;2.60;;
17372;SDS011;8803;48.116;11.590;2024-02-26T01:50:56;2.87;;;2.60;;
17372;SDS011;8803;48.116;11.590;2024-02-26T01:55:14;2.63;;;2.43;;
17372;SDS011;8803;48.116;11.590;2024-02-26T01:57:20;2.37;;;2.17;;
17372;SDS011;8803;48.116;11.590;2024-02-26T01:59:25;2.53;;;2.13;;
17372;SDS011;8803;48.116;11.590;2024-02-26T02:01:31;3.00;;;2.70;;
17372;SDS011;8803;48.116;11.590;2024-02-26T02:03:37;3.00;;;2.47;;
17372;SDS011;8803;48.116;11.590;2024-02-26T02:05:43;2.80;;;2.60;;
17372;SDS011;8803;48.116;11.590;2024-02-26T02:07:48;3.03;;;2.50;;
17372;SDS011;8803;48.116;11.590;2024-02-26T02:09:55;2.60;;;2.40;;
17372;SDS011;8803;48.116;11.590;2024-02-26T02:14:19;3.10;;;2.60;;
17372;SDS011;8803;48.116;11.590;2024-02-26T02:16:26;3.13;;;2.40;;
17372;SDS011;8803;48.116;11.590;2024-02-26T02:18:34;2.73;;;2.43;;
17372;SDS011;8803;48.116;11.590;2024-02-26T02:20:49;4.50;;;2.63;;
17372;SDS011;8803;48.116;11.590;2024-02-26T02:22:55;3.67;;;2.30;;
17372;SDS011;8803;48.116;11.590;2024-02-26T02:25:09;2.83;;;2.40;;
17372;SDS011;8803;48.116;11.590;2024-02-26T02:27:13;2.33;;;2.10;;
17372;SDS011;8803;48.116;11.590;2024-02-26T02:29:19;3.53;;;2.57;;
17372;SDS011;8803;48.116;11.590;2024-02-26T02:31:33;3.00;;;2.70;;
17372;SDS011;8803;48.116;11.590;2024-02-26T02:33:39;3.43;;;2.70;;
17372;SDS011;8803;48.116;11.590;2024-02-26T02:35:52;3.00;;;2.33;;
17372;SDS011;8803;48.116;11.590;2024-02-26T02:37:57;3.07;;;2.50;;
17372;SDS011;8803;48.116;11.590;2024-02-26T02:40:05;4.77;;;2.67;;
17372;SDS011;8803;48.116;11.590;2024-02-26T02:42:15;3.00;;;2.70;;
17372;SDS011;8803;48.116;11.590;2024-02-26T02:44:21;3.23;;;2.33;;
17372;SDS011;8803;48.116;11.590;2024-02-26T02:46:26;2.70;;;2.40;;
17372;SDS011;8803;48.116;11.590;2024-02-26T02:48:33;2.87;;;2.57;;
17372;SDS011;8803;48.116;11.590;2024-02-26T02:50:37;2.83;;;2.30;;
17372;SDS011;8803;48.116;11.590;2024-02-26T02:52:43;3.40;;;2.50;;
17372;SDS011;8803;48.116;11.590;2024-02-26T02:54:47;2.33;;;2.10;;
17372;SDS011;8803;48.116;11.590;2024-02-26T02:56:52;2.57;;;2.07;;
17372;SDS011;8803;48.116;11.590;2024-02-26T02:58:56;2.50;;;2.30;;
17372;SDS011;8803;48.116;11.590;2024-02-26T03:01:01;2.90;;;2.20;;
17372;SDS011;8803;48.116;11.590;2024-02-26T03:03:06;3.30;;;2.50;;
17372;SDS011;8803;48.116;11.590;2024-02-26T03:05:11;2.93;;;2.57;;
17372;SDS011;8803;48.116;11.590;2024-02-26T03:07:16;4.00;;;2.87;;
17372;SDS011;8803;48.116;11.590;2024-02-26T03:09:20;2.70;;;2.23;;
17372;SDS011;8803;48.116;11.590;2024-02-26T03:11:27;2.47;;;2.20;;
17372;SDS011;8803;48.116;11.590;2024-02-26T03:13:33;2.83;;;2.47;;
17372;SDS011;8803;48.116;11.590;2024-02-26T03:15:39;2.90;;;2.53;;
17372;SDS011;8803;48.116;11.590;2024-02-26T03:17:47;2.30;;;2.10;;
17372;SDS011;8803;48.116;11.590;2024-02-26T03:19:52;2.60;;;2.33;;
17372;SDS011;8803;48.116;11.590;2024-02-26T03:21:58;2.87;;;2.40;;
17372;SDS011;8803;48.116;11.590;2024-02-26T03:24:07;2.43;;;2.10;;
17372;SDS011;8803;48.116;11.590;2024-02-26T03:26:20;2.63;;;2.40;;
17372;SDS011;8803;48.116;11.590;2024-02-26T03:28:25;5.40;;;2.37;;
17372;SDS011;8803;48.116;11.590;2024-02-26T03:30:30;3.17;;;2.33;;
17372;SDS011;8803;48.116;11.590;2024-02-26T03:32:43;3.23;;;2.57;;
17372;SDS011;8803;48.116;11.590;2024-02-26T03:34:49;3.47;;;2.50;;
17372;SDS011;8803;48.116;11.590;2024-02-26T03:36:55;2.80;;;2.37;;
17372;SDS011;8803;48.116;11.590;2024-02-26T03:39:09;2.77;;;2.53;;
17372;SDS011;8803;48.116;11.590;2024-02-26T03:41:15;2.27;;;2.03;;
17372;SDS011;8803;48.116;11.590;2024-02-26T03:43:28;3.10;;;2.40;;
17372;SDS011;8803;48.116;11.590;2024-02-26T03:47:44;2.47;;;2.13;;
17372;SDS011;8803;48.116;11.590;2024-02-26T03:49:49;2.63;;;2.20;;
17372;SDS011;8803;48.116;11.590;2024-02-26T03:51:54;2.53;;;2.30;;
17372;SDS011;8803;48.116;11.590;2024-02-26T03:54:01;2.80;;;2.23;;
17372;SDS011;8803;48.116;11.590;2024-02-26T03:56:14;4.70;;;2.80;;
17372;SDS011;8803;48.116;11.590;2024-02-26T03:58:22;3.67;;;2.90;;
17372;SDS011;8803;48.116;11.590;2024-02-26T04:00:36;3.73;;;3.07;;
17372;SDS011;8803;48.116;11.590;2024-02-26T04:02:41;4.30;;;2.97;;
17372;SDS011;8803;48.116;11.590;2024-02-26T04:04:46;3.73;;;3.00;;
17372;SDS011;8803;48.116;11.590;2024-02-26T04:06:51;4.03;;;3.00;;
17372;SDS011;8803;48.116;11.590;2024-02-26T04:08:56;3.10;;;2.60;;
17372;SDS011;8803;48.116;11.590;2024-02-26T04:11:00;3.03;;;2.73;;
17372;SDS011;8803;48.116;11.590;2024-02-26T04:13:09;2.97;;;2.53;;
17372;SDS011;8803;48.116;11.590;2024-02-26T04:15:14;2.70;;;2.30;;
17372;SDS011;8803;48.116;11.590;2024-02-26T04:17:19;2.50;;;2.10;;
17372;SDS011;8803;48.116;11.590;2024-02-26T04:19:24;2.93;;;2.30;;
17372;SDS011;8803;48.116;11.590;2024-02-26T04:21:29;3.10;;;2.30;;
17372;SDS011;8803;48.116;11.590;2024-02-26T04:23:33;2.23;;;2.03;;
17372;SDS011;8803;48.116;11.590;2024-02-26T04:25:38;4.10;;;2.17;;
17372;SDS011;8803;48.116;11.590;2024-02-26T04:27:43;2.40;;;2.00;;
17372;SDS011;8803;48.116;11.590;2024-02-26T04:29:49;2.20;;;2.00;;
17372;SDS011;8803;48.116;11.590;2024-02-26T04:31:54;2.67;;;2.07;;
17372;SDS011;8803;48.116;11.590;2024-02-26T04:33:58;2.50;;;2.30;;
17372;SDS011;8803;48.116;11.590;2024-02-26T04:38:18;2.40;;;2.17;;
17372;SDS011;8803;48.116;11.590;2024-02-26T04:40:24;4.80;;;2.63;;
17372;SDS011;8803;48.116;11.590;2024-02-26T04:42:29;2.50;;;2.27;;
17372;SDS011;8803;48.116;11.590;2024-02-26T04:44:42;3.40;;;2.33;;
17372;SDS011;8803;48.116;11.590;2024-02-26T04:46:47;2.93;;;2.27;;
17372;SDS011;8803;48.116;11.590;2024-02-26T04:48:52;3.07;;;2.10;;
17372;SDS011;8803;48.116;11.590;2024-02-26T04:51:05;2.57;;;2.10;;
17372;SDS011;8803;48.116;11.590;2024-02-26T04:53:10;2.73;;;2.20;;
17372;SDS011;8803;48.116;11.590;2024-02-26T04:55:15;2.03;;;1.80;;
17372;SDS011;8803;48.116;11.590;2024-02-26T04:57:29;2.30;;;1.87;;
17372;SDS011;8803;48.116;11.590;2024-02-26T04:59:34;2.10;;;1.90;;
17372;SDS011;8803;48.116;11.590;2024-02-26T05:01:40;2.87;;;1.90;;
17372;SDS011;8803;48.116;11.590;2024-02-26T05:03:44;2.07;;;1.87;;
17372;SDS011;8803;48.116;11.590;2024-02-26T05:05:57;3.50;;;2.10;;
17372;SDS011;8803;48.116;11.590;2024-02-26T05:10:17;4.57;;;4.03;;
17372;SDS011;8803;48.116;11.590;2024-02-26T05:12:22;3.90;;;3.33;;
17372;SDS011;8803;48.116;11.590;2024-02-26T05:14:28;3.50;;;2.67;;
17372;SDS011;8803;48.116;11.590;2024-02-26T05:16:33;2.97;;;2.20;;
17372;SDS011;8803;48.116;11.590;2024-02-26T05:18:39;2.80;;;1.87;;
17372;SDS011;8803;48.116;11.590;2024-02-26T05:20:44;2.70;;;2.10;;
17372;SDS011;8803;48.116;11.590;2024-02-26T05:22:57;2.10;;;1.80;;
17372;SDS011;8803;48.116;11.590;2024-02-26T05:25:03;1.60;;;1.50;;
17372;SDS011;8803;48.116;11.590;2024-02-26T05:27:17;2.80;;;2.07;;
17372;SDS011;8803;48.116;11.590;2024-02-26T05:29:22;2.80;;;1.73;;
17372;SDS011;8803;48.116;11.590;2024-02-26T05:31:27;2.77;;;1.80;;
17372;SDS011;8803;48.116;11.590;2024-02-26T05:33:32;2.73;;;1.90;;
17372;SDS011;8803;48.116;11.590;2024-02-26T05:35:38;2.43;;;2.00;;
17372;SDS011;8803;48.116;11.590;2024-02-26T05:37:43;1.70;;;1.60;;
17372;SDS011;8803;48.116;11.590;2024-02-26T05:39:47;2.57;;;1.80;;
17372;SDS011;8803;48.116;11.590;2024-02-26T05:41:52;4.67;;;1.87;;
17372;SDS011;8803;48.116;11.590;2024-02-26T05:43:56;2.10;;;1.80;;
17372;SDS011;8803;48.116;11.590;2024-02-26T05:46:01;2.57;;;1.90;;
17372;SDS011;8803;48.116;11.590;2024-02-26T05:48:08;2.10;;;1.80;;
17372;SDS011;8803;48.116;11.590;2024-02-26T05:50:13;1.70;;;1.60;;
17372;SDS011;8803;48.116;11.590;2024-02-26T05:52:20;2.47;;;1.60;;
17372;SDS011;8803;48.116;11.590;2024-02-26T05:54:24;2.23;;;1.57;;
17372;SDS011;8803;48.116;11.590;2024-02-26T05:56:30;2.37;;;1.70;;
17372;SDS011;8803;48.116;11.590;2024-02-26T05:58:34;2.00;;;1.80;;
17372;SDS011;8803;48.116;11.590;2024-02-26T06:00:39;1.87;;;1.57;;
17372;SDS011;8803;48.116;11.590;2024-02-26T06:02:47;1.80;;;1.50;;
17372;SDS011;8803;48.116;11.590;2024-02-26T06:04:52;2.93;;;1.80;;
17372;SDS011;8803;48.116;11.590;2024-02-26T06:06:56;3.20;;;1.63;;
17372;SDS011;8803;48.116;11.590;2024-02-26T06:09:10;2.83;;;2.03;;
17372;SDS011;8803;48.116;11.590;2024-02-26T06:11:14;2.67;;;1.70;;
17372;SDS011;8803;48.116;11.590;2024-02-26T06:13:20;3.87;;;2.00;;
17372;SDS011;8803;48.116;11.590;2024-02-26T06:15:25;2.33;;;1.80;;
17372;SDS011;8803;48.116;11.590;2024-02-26T06:17:30;2.17;;;1.97;;
17372;SDS011;8803;48.116;11.590;2024-02-26T06:19:43;3.60;;;1.90;;
17372;SDS011;8803;48.116;11.590;2024-02-26T06:21:47;3.00;;;2.13;;
17372;SDS011;8803;48.116;11.590;2024-02-26T06:23:52;2.67;;;2.00;;
17372;SDS011;8803;48.116;11.590;2024-02-26T06:26:05;2.47;;;2.20;;
17372;SDS011;8803;48.116;11.590;2024-02-26T06:28:11;3.17;;;2.47;;
17372;SDS011;8803;48.116;11.590;2024-02-26T06:30:17;2.40;;;1.80;;
17372;SDS011;8803;48.116;11.590;2024-02-26T06:32:30;2.90;;;2.30;;
17372;SDS011;8803;48.116;11.590;2024-02-26T06:34:34;2.30;;;1.87;;
17372;SDS011;8803;48.116;11.590;2024-02-26T06:36:42;3.13;;;1.90;;
17372;SDS011;8803;48.116;11.590;2024-02-26T06:38:55;2.40;;;1.77;;
17372;SDS011;8803;48.116;11.590;2024-02-26T06:40:59;2.50;;;2.00;;
17372;SDS011;8803;48.116;11.590;2024-02-26T06:43:13;3.00;;;2.27;;
17372;SDS011;8803;48.116;11.590;2024-02-26T06:45:17;2.27;;;2.00;;
17372;SDS011;8803;48.116;11.590;2024-02-26T06:47:22;2.70;;;2.13;;
17372;SDS011;8803;48.116;11.590;2024-02-26T06:49:35;2.83;;;2.10;;
17372;SDS011;8803;48.116;11.590;2024-02-26T06:51:41;3.10;;;2.23;;
17372;SDS011;8803;48.116;11.590;2024-02-26T06:53:45;2.27;;;1.90;;
17372;SDS011;8803;48.116;11.590;2024-02-26T06:56:02;1.87;;;1.73;;
17372;SDS011;8803;48.116;11.590;2024-02-26T06:58:10;2.90;;;2.17;;
17372;SDS011;8803;48.116;11.590;2024-02-26T07:00:24;2.93;;;2.20;;
17372;SDS011;8803;48.116;11.590;2024-02-26T07:02:29;2.80;;;2.20;;
17372;SDS011;8803;48.116;11.590;2024-02-26T07:06:46;2.63;;;2.23;;
17372;SDS011;8803;48.116;11.590;2024-02-26T07:08:51;3.30;;;2.40;;
17372;SDS011;8803;48.116;11.590;2024-02-26T07:10:57;3.30;;;2.10;;
17372;SDS011;8803;48.116;11.590;2024-02-26T07:13:10;3.37;;;2.10;;
17372;SDS011;8803;48.116;11.590;2024-02-26T07:15:17;2.10;;;1.80;;
17372;SDS011;8803;48.116;11.590;2024-02-26T07:17:30;1.73;;;1.57;;
17372;SDS011;8803;48.116;11.590;2024-02-26T07:19:37;2.43;;;1.83;;
17372;SDS011;8803;48.116;11.590;2024-02-26T07:21:43;2.50;;;1.63;;
17372;SDS011;8803;48.116;11.590;2024-02-26T07:23:48;3.03;;;1.77;;
17372;SDS011;8803;48.116;11.590;2024-02-26T07:25:53;2.60;;;1.60;;
17372;SDS011;8803;48.116;11.590;2024-02-26T07:27:59;2.70;;;1.40;;
17372;SDS011;8803;48.116;11.590;2024-02-26T07:30:20;2.83;;;1.30;;
17372;SDS011;8803;48.116;11.590;2024-02-26T07:34:39;2.10;;;1.50;;
17372;SDS011;8803;48.116;11.590;2024-02-26T07:39:00;2.53;;;1.70;;
17372;SDS011;8803;48.116;11.590;2024-02-26T07:43:21;1.50;;;1.37;;
17372;SDS011;8803;48.116;11.590;2024-02-26T07:47:37;1.97;;;1.50;;
17372;SDS011;8803;48.116;11.590;2024-02-26T07:49:42;2.00;;;1.70;;
17372;SDS011;8803;48.116;11.590;2024-02-26T07:51:55;4.37;;;3.10;;
17372;SDS011;8803;48.116;11.590;2024-02-26T07:54:00;5.30;;;2.87;;
17372;SDS011;8803;48.116;11.590;2024-02-26T07:56:14;5.73;;;2.50;;
17372;SDS011;8803;48.116;11.590;2024-02-26T07:58:19;2.87;;;2.10;;
17372;SDS011;8803;48.116;11.590;2024-02-26T08:00:25;2.23;;;1.77;;
17372;SDS011;8803;48.116;11.590;2024-02-26T08:02:29;2.37;;;1.70;;
17372;SDS011;8803;48.116;11.590;2024-02-26T08:04:35;3.20;;;1.80;;
17372;SDS011;8803;48.116;11.590;2024-02-26T08:06:40;2.90;;;1.93;;
17372;SDS011;8803;48.116;11.590;2024-02-26T08:08:53;4.37;;;2.00;;
17372;SDS011;8803;48.116;11.590;2024-02-26T08:10:59;3.83;;;2.00;;
17372;SDS011;8803;48.116;11.590;2024-02-26T08:13:05;5.17;;;2.30;;
17372;SDS011;8803;48.116;11.590;2024-02-26T08:15:18;3.17;;;2.30;;
17372;SDS011;8803;48.116;11.590;2024-02-26T08:17:22;6.30;;;2.50;;
17372;SDS011;8803;48.116;11.590;2024-02-26T08:19:28;2.57;;;2.37;;
17372;SDS011;8803;48.116;11.590;2024-02-26T08:21:33;3.13;;;2.03;;
17372;SDS011;8803;48.116;11.590;2024-02-26T08:23:38;3.03;;;2.47;;
17372;SDS011;8803;48.116;11.590;2024-02-26T08:25:43;3.63;;;2.50;;
17372;SDS011;8803;48.116;11.590;2024-02-26T08:27:49;3.23;;;2.17;;
17372;SDS011;8803;48.116;11.590;2024-02-26T08:29:54;3.77;;;2.53;;
17372;SDS011;8803;48.116;11.590;2024-02-26T08:31:59;3.50;;;2.70;;
17372;SDS011;8803;48.116;11.590;2024-02-26T08:34:04;3.70;;;2.13;;
17372;SDS011;8803;48.116;11.590;2024-02-26T08:36:11;2.53;;;2.30;;
17372;SDS011;8803;48.116;11.590;2024-02-26T08:38:15;6.13;;;2.50;;
17372;SDS011;8803;48.116;11.590;2024-02-26T08:40:21;3.37;;;2.60;;
17372;SDS011;8803;48.116;11.590;2024-02-26T08:42:26;2.40;;;1.97;;
17372;SDS011;8803;48.116;11.590;2024-02-26T08:44:39;4.33;;;2.67;;
17372;SDS011;8803;48.116;11.590;2024-02-26T08:46:44;3.50;;;2.20;;
17372;SDS011;8803;48.116;11.590;2024-02-26T08:48:52;3.87;;;2.20;;
17372;SDS011;8803;48.116;11.590;2024-02-26T08:50:56;3.27;;;2.17;;
17372;SDS011;8803;48.116;11.590;2024-02-26T08:53:01;4.13;;;2.40;;
17372;SDS011;8803;48.116;11.590;2024-02-26T08:55:09;2.97;;;2.30;;
17372;SDS011;8803;48.116;11.590;2024-02-26T08:57:23;6.10;;;4.80;;
17372;SDS011;8803;48.116;11.590;2024-02-26T08:59:28;3.20;;;2.50;;
17372;SDS011;8803;48.116;11.590;2024-02-26T09:01:42;3.50;;;2.40;;
17372;SDS011;8803;48.116;11.590;2024-02-26T09:03:46;3.57;;;2.20;;
17372;SDS011;8803;48.116;11.590;2024-02-26T09:05:59;3.37;;;2.30;;
17372;SDS011;8803;48.116;11.590;2024-02-26T09:08:08;2.77;;;1.90;;
17372;SDS011;8803;48.116;11.590;2024-02-26T09:12:32;4.13;;;2.60;;
17372;SDS011;8803;48.116;11.590;2024-02-26T09:14:37;5.60;;;2.70;;
17372;SDS011;8803;48.116;11.590;2024-02-26T09:16:50;3.10;;;2.73;;
17372;SDS011;8803;48.116;11.590;2024-02-26T09:18:55;3.83;;;2.47;;
17372;SDS011;8803;48.116;11.590;2024-02-26T09:20:59;5.37;;;2.70;;
17372;SDS011;8803;48.116;11.590;2024-02-26T09:23:10;3.37;;;2.40;;
17372;SDS011;8803;48.116;11.590;2024-02-26T09:25:23;4.63;;;2.20;;
17372;SDS011;8803;48.116;11.590;2024-02-26T09:29:41;4.20;;;1.90;;
17372;SDS011;8803;48.116;11.590;2024-02-26T09:31:46;2.53;;;2.03;;
17372;SDS011;8803;48.116;11.590;2024-02-26T09:33:59;4.53;;;2.03;;
17372;SDS011;8803;48.116;11.590;2024-02-26T09:36:06;7.10;;;2.23;;
17372;SDS011;8803;48.116;11.590;2024-02-26T09:38:20;3.70;;;2.53;;
17372;SDS011;8803;48.116;11.590;2024-02-26T09:40:25;3.67;;;2.57;;
17372;SDS011;8803;48.116;11.590;2024-02-26T09:42:39;2.90;;;2.33;;
17372;SDS011;8803;48.116;11.590;2024-02-26T09:44:48;6.20;;;2.27;;
17372;SDS011;8803;48.116;11.590;2024-02-26T09:47:03;4.90;;;2.27;;
17372;SDS011;8803;48.116;11.590;2024-02-26T09:49:10;3.73;;;2.30;;
17372;SDS011;8803;48.116;11.590;2024-02-26T09:51:25;4.53;;;2.50;;
17372;SDS011;8803;48.116;11.590;2024-02-26T09:53:30;3.87;;;2.60;;
17372;SDS011;8803;48.116;11.590;2024-02-26T09:55:44;2.83;;;2.23;;
17372;SDS011;8803;48.116;11.590;2024-02-26T09:57:49;2.63;;;2.10;;
17372;SDS011;8803;48.116;11.590;2024-02-26T10:00:07;2.90;;;2.40;;
17372;SDS011;8803;48.116;11.590;2024-02-26T10:02:17;3.10;;;2.20;;
17372;SDS011;8803;48.116;11.590;2024-02-26T10:04:32;2.77;;;1.97;;
17372;SDS011;8803;48.116;11.590;2024-02-26T10:06:37;2.53;;;1.90;;
17372;SDS011;8803;48.116;11.590;2024-02-26T10:08:53;1.80;;;1.70;;
17372;SDS011;8803;48.116;11.590;2024-02-26T10:11:00;3.03;;;1.90;;
17372;SDS011;8803;48.116;11.590;2024-02-26T10:13:19;2.93;;;2.00;;
17372;SDS011;8803;48.116;11.590;2024-02-26T10:15:25;1.90;;;1.70;;
17372;SDS011;8803;48.116;11.590;2024-02-26T10:17:29;3.63;;;1.87;;
17372;SDS011;8803;48.116;11.590;2024-02-26T10:19:42;2.37;;;1.80;;
17372;SDS011;8803;48.116;11.590;2024-02-26T10:21:47;2.73;;;1.60;;
17372;SDS011;8803;48.116;11.590;2024-02-26T10:24:00;1.70;;;1.60;;
17372;SDS011;8803;48.116;11.590;2024-02-26T10:26:04;8.53;;;2.73;;
17372;SDS011;8803;48.116;11.590;2024-02-26T10:28:17;2.07;;;1.67;;
17372;SDS011;8803;48.116;11.590;2024-02-26T10:30:22;2.73;;;1.60;;
17372;SDS011;8803;48.116;11.590;2024-02-26T10:32:36;3.47;;;1.70;;
17372;SDS011;8803;48.116;11.590;2024-02-26T10:34:41;1.73;;;1.47;;
17372;SDS011;8803;48.116;11.590;2024-02-26T10:36:54;6.50;;;1.87;;
17372;SDS011;8803;48.116;11.590;2024-02-26T10:39:01;2.17;;;1.70;;
17372;SDS011;8803;48.116;11.590;2024-02-26T10:41:14;2.10;;;1.43;;
17372;SDS011;8803;48.116;11.590;2024-02-26T10:43:20;3.37;;;1.30;;
17372;SDS011;8803;48.116;11.590;2024-02-26T10:45:34;1.73;;;1.40;;
17372;SDS011;8803;48.116;11.590;2024-02-26T10:47:41;2.53;;;1.47;;
17372;SDS011;8803;48.116;11.590;2024-02-26T10:49:54;3.60;;;1.53;;
17372;SDS011;8803;48.116;11.590;2024-02-26T10:52:01;2.97;;;1.60;;
17372;SDS011;8803;48.116;11.590;2024-02-26T10:54:15;2.77;;;1.67;;
17372;SDS011;8803;48.116;11.590;2024-02-26T10:56:22;2.87;;;1.60;;
17372;SDS011;8803;48.116;11.590;2024-02-26T10:58:37;2.60;;;1.47;;
17372;SDS011;8803;48.116;11.590;2024-02-26T11:00:42;2.10;;;1.70;;
17372;SDS011;8803;48.116;11.590;2024-02-26T11:02:56;1.30;;;1.10;;
17372;SDS011;8803;48.116;11.590;2024-02-26T11:05:05;2.60;;;1.83;;
17372;SDS011;8803;48.116;11.590;2024-02-26T11:07:20;1.40;;;1.10;;
17372;SDS011;8803;48.116;11.590;2024-02-26T11:09:25;2.10;;;1.60;;
17372;SDS011;8803;48.116;11.590;2024-02-26T11:11:40;1.70;;;1.33;;
17372;SDS011;8803;48.116;11.590;2024-02-26T11:13:46;4.20;;;1.40;;
17372;SDS011;8803;48.116;11.590;2024-02-26T11:15:59;3.13;;;1.50;;
17372;SDS011;8803;48.116;11.590;2024-02-26T11:18:07;1.37;;;1.17;;
17372;SDS011;8803;48.116;11.590;2024-02-26T11:20:20;3.13;;;1.43;;
17372;SDS011;8803;48.116;11.590;2024-02-26T11:22:26;2.07;;;1.30;;
17372;SDS011;8803;48.116;11.590;2024-02-26T11:24:40;2.43;;;1.10;;
17372;SDS011;8803;48.116;11.590;2024-02-26T11:26:49;1.07;;;0.97;;
17372;SDS011;8803;48.116;11.590;2024-02-26T11:28:57;1.53;;;0.80;;
17372;SDS011;8803;48.116;11.590;2024-02-26T11:31:11;1.10;;;0.80;;
17372;SDS011;8803;48.116;11.590;2024-02-26T11:33:17;0.70;;;0.70;;
17372;SDS011;8803;48.116;11.590;2024-02-26T11:35:32;0.83;;;0.73;;
17372;SDS011;8803;48.116;11.590;2024-02-26T11:37:36;3.63;;;1.97;;
17372;SDS011;8803;48.116;11.590;2024-02-26T11:39:50;1.80;;;1.63;;
17372;SDS011;8803;48.116;11.590;2024-02-26T11:41:55;1.77;;;1.30;;
17372;SDS011;8803;48.116;11.590;2024-02-26T11:44:10;1.90;;;1.00;;
17372;SDS011;8803;48.116;11.590;2024-02-26T11:46:26;2.10;;;1.00;;
17372;SDS011;8803;48.116;11.590;2024-02-26T11:48:32;1.13;;;1.03;;
17372;SDS011;8803;48.116;11.590;2024-02-26T11:50:47;1.10;;;1.00;;
17372;SDS011;8803;48.116;11.590;2024-02-26T11:55:32;2.73;;;1.10;;
17372;SDS011;8803;48.116;11.590;2024-02-26T11:57:45;1.37;;;1.10;;
17372;SDS011;8803;48.116;11.590;2024-02-26T11:59:50;1.60;;;1.10;;
17372;SDS011;8803;48.116;11.590;2024-02-26T12:02:03;1.50;;;1.40;;
17372;SDS011;8803;48.116;11.590;2024-02-26T12:04:13;1.47;;;1.20;;
17372;SDS011;8803;48.116;11.590;2024-02-26T12:06:21;2.30;;;1.10;;
17372;SDS011;8803;48.116;11.590;2024-02-26T12:08:27;1.40;;;1.07;;
17372;SDS011;8803;48.116;11.590;2024-02-26T12:10:32;1.50;;;1.20;;
17372;SDS011;8803;48.116;11.590;2024-02-26T12:12:46;1.80;;;1.17;;
17372;SDS011;8803;48.116;11.590;2024-02-26T12:14:52;1.57;;;1.20;;
17372;SDS011;8803;48.116;11.590;2024-02-26T12:19:10;1.17;;;1.00;;
17372;SDS011;8803;48.116;11.590;2024-02-26T12:21:24;1.83;;;1.20;;
17372;SDS011;8803;48.116;11.590;2024-02-26T12:25:40;1.30;;;0.97;;
17372;SDS011;8803;48.116;11.590;2024-02-26T12:27:45;1.20;;;0.97;;
17372;SDS011;8803;48.116;11.590;2024-02-26T12:29:58;1.33;;;0.97;;
17372;SDS011;8803;48.116;11.590;2024-02-26T12:32:05;1.27;;;0.90;;
17372;SDS011;8803;48.116;11.590;2024-02-26T12:34:09;0.83;;;0.83;;
17372;SDS011;8803;48.116;11.590;2024-02-26T12:36:15;1.93;;;1.17;;
17372;SDS011;8803;48.116;11.590;2024-02-26T12:38:20;1.37;;;1.00;;
17372;SDS011;8803;48.116;11.590;2024-02-26T12:40:25;1.07;;;0.80;;
17372;SDS011;8803;48.116;11.590;2024-02-26T12:42:39;1.33;;;0.97;;
17372;SDS011;8803;48.116;11.590;2024-02-26T12:44:45;1.43;;;1.23;;
17372;SDS011;8803;48.116;11.590;2024-02-26T12:46:50;0.70;;;0.70;;
17372;SDS011;8803;48.116;11.590;2024-02-26T12:48:58;1.70;;;1.07;;
17372;SDS011;8803;48.116;11.590;2024-02-26T12:51:05;1.17;;;0.90;;
17372;SDS011;8803;48.116;11.590;2024-02-26T12:53:11;2.13;;;1.40;;
17372;SDS011;8803;48.116;11.590;2024-02-26T12:55:19;2.40;;;0.80;;
17372;SDS011;8803;48.116;11.590;2024-02-26T12:57:25;1.03;;;0.80;;
17372;SDS011;8803;48.116;11.590;2024-02-26T12:59:39;2.00;;;1.27;;
17372;SDS011;8803;48.116;11.590;2024-02-26T13:01:44;1.63;;;1.10;;
17372;SDS011;8803;48.116;11.590;2024-02-26T13:03:50;1.20;;;1.10;;
17372;SDS011;8803;48.116;11.590;2024-02-26T13:05:56;3.37;;;1.23;;
17372;SDS011;8803;48.116;11.590;2024-02-26T13:08:09;4.40;;;2.47;;
17372;SDS011;8803;48.116;11.590;2024-02-26T13:10:19;2.53;;;1.63;;
17372;SDS011;8803;48.116;11.590;2024-02-26T13:12:32;2.10;;;1.40;;
17372;SDS011;8803;48.116;11.590;2024-02-26T13:14:37;1.43;;;1.23;;
17372;SDS011;8803;48.116;11.590;2024-02-26T13:16:42;7.53;;;2.47;;
17372;SDS011;8803;48.116;11.590;2024-02-26T13:18:55;9.13;;;1.80;;
17372;SDS011;8803;48.116;11.590;2024-02-26T13:21:08;5.93;;;2.10;;
17372;SDS011;8803;48.116;11.590;2024-02-26T13:23:17;5.93;;;2.80;;
17372;SDS011;8803;48.116;11.590;2024-02-26T13:25:24;3.07;;;1.93;;